.
WxDataArchive / Data Records for 2011-10-04
2011-10-03 October 2011 2011-10-05

Data Records for Tuesday, 04 October 2011

Time	Temp	Chill	HIndex	Humid	Dewpt	 Wind 	HiWind	WindDir	Rain 	Barom 
-----	----	-----	------	-----	-----	------	------	-------	-----	----- 
00:00	47.4	47.4	47.4	78	40.9	0	0	---	0.00	30.203 
00:05	47.3	47.3	47.3	78	40.8	0	0	---	0.00	30.203 
00:10	47.1	47.1	47.1	78	40.6	0	0	---	0.00	30.203 
00:15	47.0	47.0	47.0	79	40.8	0	0	---	0.00	30.197 
00:20	46.8	46.8	46.8	79	40.6	0	0	---	0.00	30.197 
00:25	46.7	46.7	46.7	79	40.5	0	0	---	0.00	30.197 
00:30	46.5	46.5	46.5	80	40.7	0	0	---	0.00	30.200 
00:35	46.5	46.5	46.5	80	40.7	0	0	---	0.00	30.200 
00:40	46.5	46.5	46.5	80	40.7	0	0	---	0.00	30.200 
00:45	46.7	46.7	46.7	80	40.9	0	1	292	0.00	30.201 
00:50	46.7	46.7	46.7	81	41.2	0	0	---	0.00	30.201 
00:55	46.5	46.5	46.5	81	41.0	0	0	---	0.00	30.201 
01:00	46.4	46.4	46.4	81	40.9	0	0	---	0.00	30.201 
01:05	46.4	46.4	46.4	81	40.9	0	0	---	0.00	30.201 
01:10	46.2	46.2	46.2	82	41.0	0	0	---	0.00	30.201 
01:15	46.0	46.0	46.0	82	40.8	0	0	---	0.00	30.199 
01:20	46.0	46.0	46.0	83	41.1	0	0	---	0.00	30.199 
01:25	45.8	45.8	45.8	84	41.2	0	0	---	0.00	30.199 
01:30	45.8	45.8	45.8	84	41.2	0	0	---	0.00	30.199 
01:35	46.0	46.0	46.0	84	41.4	0	0	---	0.00	30.199 
01:40	46.0	46.0	46.0	84	41.4	0	0	---	0.00	30.199 
01:45	46.0	46.0	46.0	84	41.4	0	0	---	0.00	30.200 
01:50	45.8	45.8	45.8	85	41.6	0	0	---	0.00	30.200 
01:55	45.8	45.8	45.8	85	41.6	0	0	---	0.00	30.200 
02:00	45.8	45.8	45.8	85	41.6	0	0	---	0.00	30.201 
02:05	45.8	45.8	45.8	85	41.6	0	0	---	0.00	30.201 
02:10	45.7	45.7	45.7	85	41.5	0	0	---	0.00	30.201 
02:15	45.5	45.5	45.5	85	41.3	0	0	---	0.00	30.201 
02:20	45.5	45.5	45.5	86	41.6	0	0	---	0.00	30.201 
02:25	45.4	45.4	45.4	86	41.5	0	0	---	0.00	30.201 
02:30	45.2	45.2	45.2	86	41.3	0	0	---	0.00	30.208 
02:35	45.2	45.2	45.2	86	41.3	0	0	---	0.00	30.208 
02:40	45.1	45.1	45.1	86	41.2	0	0	---	0.00	30.208 
02:45	44.9	44.9	44.9	87	41.3	0	0	---	0.00	30.203 
02:50	44.9	44.9	44.9	87	41.3	0	0	---	0.00	30.203 
02:55	44.8	44.8	44.8	87	41.2	0	0	---	0.00	30.203 
03:00	44.6	44.6	44.6	88	41.3	0	0	---	0.00	30.206 
03:05	44.6	44.6	44.6	88	41.3	0	0	---	0.00	30.206 
03:10	44.5	44.5	44.5	88	41.2	0	0	---	0.00	30.206 
03:15	44.3	44.3	44.3	88	41.0	0	0	---	0.00	30.210 
03:20	44.2	44.2	44.2	88	40.9	0	0	---	0.00	30.210 
03:25	44.1	44.1	44.1	88	40.8	0	0	---	0.00	30.210 
03:30	43.9	43.9	43.9	89	40.9	0	0	---	0.00	30.209 
03:35	43.9	43.9	43.9	89	40.9	0	0	---	0.00	30.209 
03:40	43.8	43.8	43.8	89	40.8	0	0	---	0.00	30.209 
03:45	43.6	43.6	43.6	89	40.6	0	0	---	0.00	30.210 
03:50	43.8	43.8	43.8	90	41.1	0	0	---	0.00	30.210 
03:55	43.8	43.8	43.8	90	41.1	0	0	---	0.00	30.210 
04:00	43.8	43.8	43.8	90	41.1	0	0	---	0.00	30.212 
04:05	43.8	43.8	43.8	90	41.1	0	0	---	0.00	30.212 
04:10	43.8	43.8	43.8	90	41.1	0	0	---	0.00	30.212 
04:15	43.8	43.8	43.8	90	41.1	0	0	---	0.00	30.214 
04:20	43.8	43.8	43.8	91	41.3	0	0	---	0.00	30.214 
04:25	43.6	43.6	43.6	91	41.1	0	0	---	0.00	30.214 
04:30	43.6	43.6	43.6	91	41.1	0	0	---	0.00	30.215 
04:35	43.6	43.6	43.6	91	41.1	0	0	---	0.00	30.215 
04:40	43.6	43.6	43.6	91	41.1	0	0	---	0.00	30.215 
04:45	43.5	43.5	43.5	91	41.0	0	0	---	0.00	30.216 
04:50	43.3	43.3	43.3	91	40.9	0	0	---	0.00	30.216 
04:55	43.3	43.3	43.3	91	40.9	0	0	---	0.00	30.216 
05:00	43.2	43.2	43.2	91	40.8	0	0	---	0.00	30.225 
05:05	43.1	43.1	43.1	91	40.7	0	0	---	0.00	30.225 
05:10	43.1	43.1	43.1	91	40.7	0	0	---	0.00	30.225 
05:15	43.1	43.1	43.1	92	40.9	0	0	---	0.00	30.230 
05:20	43.1	43.1	43.1	92	40.9	0	0	---	0.00	30.230 
05:25	43.1	43.1	43.1	92	40.9	0	0	---	0.00	30.230 
05:30	42.9	42.9	42.9	92	40.7	0	0	---	0.00	30.233 
05:35	42.8	42.8	42.8	92	40.6	0	0	---	0.00	30.233 
05:40	42.6	42.6	42.6	92	40.4	0	0	---	0.00	30.233 
05:45	42.6	42.6	42.6	92	40.4	0	0	---	0.00	30.235 
05:50	42.5	42.5	42.5	92	40.3	0	0	---	0.00	30.235 
05:55	42.5	42.5	42.5	92	40.3	0	0	---	0.00	30.235 
06:00	42.3	42.3	42.3	92	40.1	0	0	---	0.00	30.239 
06:05	42.3	42.3	42.3	92	40.1	0	0	---	0.00	30.239 
06:10	42.3	42.3	42.3	92	40.1	0	0	---	0.00	30.239 
06:15	42.3	42.3	42.3	92	40.1	0	0	---	0.00	30.246 
06:20	42.2	42.2	42.2	92	40.0	0	0	---	0.00	30.246 
06:25	42.2	42.2	42.2	92	40.0	0	0	---	0.00	30.246 
06:30	42.2	42.2	42.2	93	40.3	0	0	---	0.00	30.247 
06:35	42.2	42.2	42.2	93	40.3	0	0	---	0.00	30.247 
06:40	42.2	42.2	42.2	93	40.3	0	0	---	0.00	30.247 
06:45	42.1	42.1	42.1	93	40.2	0	0	---	0.00	30.248 
06:50	42.1	42.1	42.1	93	40.2	0	0	---	0.00	30.248 
06:55	42.1	42.1	42.1	93	40.2	0	0	---	0.00	30.248 
07:00	42.1	42.1	42.1	93	40.2	0	0	---	0.00	30.253 
07:05	42.1	42.1	42.1	93	40.2	0	0	---	0.00	30.253 
07:10	42.2	42.2	42.2	93	40.3	0	0	---	0.00	30.253 
07:15	42.2	42.2	42.2	93	40.3	0	0	---	0.00	30.264 
07:20	42.2	42.2	42.2	93	40.3	0	0	---	0.00	30.264 
07:25	42.1	42.1	42.1	93	40.2	0	0	---	0.00	30.264 
07:30	42.1	42.1	42.1	93	40.2	0	0	---	0.00	30.269 
07:35	42.1	42.1	42.1	93	40.2	0	0	---	0.00	30.269 
07:40	42.1	42.1	42.1	93	40.2	0	0	---	0.00	30.269 
07:45	42.1	42.1	42.1	93	40.2	0	0	---	0.00	30.274 
07:50	41.9	41.9	41.9	93	40.0	0	0	---	0.00	30.274 
07:55	41.9	41.9	41.9	93	40.0	0	0	---	0.00	30.274 
08:00	41.9	41.9	41.9	93	40.0	0	0	---	0.00	30.275 
08:05	41.9	41.9	41.9	93	40.0	0	0	---	0.00	30.275 
08:10	42.1	42.1	42.1	94	40.5	0	0	---	0.00	30.275 
08:15	42.2	42.2	42.2	94	40.6	0	0	---	0.00	30.284 
08:20	42.3	42.3	42.3	94	40.7	0	0	---	0.00	30.284 
08:25	42.5	42.5	42.5	94	40.9	0	0	---	0.00	30.284 
08:30	42.8	42.8	42.8	94	41.2	0	0	---	0.00	30.288 
08:35	43.1	43.1	43.1	94	41.5	0	0	---	0.00	30.288 
08:40	43.3	43.3	43.3	94	41.7	0	0	---	0.00	30.288 
08:45	43.8	43.8	43.8	94	42.2	0	0	---	0.00	30.293 
08:50	44.2	44.2	44.2	95	42.9	0	0	---	0.00	30.293 
08:55	44.8	44.8	44.8	95	43.5	0	0	---	0.00	30.293 
09:00	45.2	45.2	45.2	95	43.9	0	0	---	0.00	30.295 
09:05	45.8	45.8	45.8	95	44.4	0	1	292	0.00	30.295 
09:10	46.5	46.5	46.5	95	45.1	0	0	---	0.00	30.295 
09:15	47.1	47.1	47.1	95	45.7	0	0	---	0.00	30.295 
09:20	47.9	47.9	47.9	95	46.5	0	1	292	0.00	30.295 
09:25	48.5	48.5	48.5	94	46.9	0	0	---	0.00	30.295 
09:30	49.1	49.1	49.1	94	47.4	0	0	---	0.00	30.291 
09:35	49.5	49.5	49.5	94	47.8	0	0	---	0.00	30.291 
09:40	50.1	50.1	50.1	94	48.4	0	0	---	0.00	30.291 
09:45	50.8	50.8	50.8	92	48.6	0	0	---	0.00	30.295 
09:50	51.6	51.6	51.6	91	49.1	0	1	292	0.00	30.295 
09:55	52.5	52.5	52.5	87	48.7	1	3	292	0.00	30.295 
10:00	53.3	53.3	53.3	84	48.6	0	3	292	0.00	30.300 
10:05	54.2	54.2	54.2	82	48.8	0	2	292	0.00	30.300 
10:10	55.4	55.4	55.4	81	49.7	0	2	292	0.00	30.300 
10:15	56.3	56.3	56.3	77	49.2	0	1	292	0.00	30.301 
10:20	57.3	57.3	57.3	73	48.7	1	3	292	0.00	30.301 
10:25	58.3	58.3	58.3	72	49.3	0	3	292	0.00	30.301 
10:30	58.9	58.9	58.9	71	49.5	0	3	90	0.00	30.298 
10:35	59.5	59.5	59.5	69	49.3	0	3	90	0.00	30.298 
10:40	60.2	60.2	60.2	67	49.2	0	2	90	0.00	30.298 
10:45	61.0	61.0	61.0	65	49.1	1	2	90	0.00	30.301 
10:50	61.6	61.6	61.6	63	48.9	0	2	90	0.00	30.301 
10:55	62.3	62.3	62.3	63	49.5	1	4	90	0.00	30.301 
11:00	62.4	62.4	62.4	62	49.2	1	3	90	0.00	30.305 
11:05	62.7	62.7	62.7	62	49.5	1	3	90	0.00	30.305 
11:10	63.1	63.1	63.1	62	49.9	1	2	90	0.00	30.305 
11:15	63.4	63.4	63.4	62	50.1	0	2	90	0.00	30.306 
11:20	63.9	63.9	63.9	61	50.2	0	2	90	0.00	30.306 
11:25	64.3	64.3	64.3	61	50.6	0	2	90	0.00	30.306 
11:30	64.7	64.7	64.7	62	51.4	0	2	90	0.00	30.298 
11:35	64.5	64.5	64.5	61	50.7	0	1	90	0.00	30.298 
11:40	64.3	64.3	64.3	61	50.6	0	3	90	0.00	30.298 
11:45	64.5	64.5	64.5	63	51.6	0	1	90	0.00	30.299 
11:50	65.2	65.2	65.2	61	51.4	0	3	90	0.00	30.299 
11:55	65.6	65.6	65.6	62	52.2	1	3	90	0.00	30.299 
12:00	65.8	65.8	65.8	58	50.6	1	3	90	0.00	30.297 
12:05	66.0	66.0	66.0	60	51.7	0	2	90	0.00	30.297 
12:10	66.1	66.1	66.1	60	51.8	0	1	90	0.00	30.297 
12:15	66.3	66.3	66.3	59	51.5	0	2	90	0.00	30.295 
12:20	66.6	66.6	66.6	58	51.4	0	2	90	0.00	30.295 
12:25	66.9	66.9	66.9	57	51.2	0	1	90	0.00	30.295 
12:30	67.3	67.3	67.3	58	52.0	1	3	90	0.00	30.292 
12:35	67.3	67.3	67.3	56	51.1	1	4	90	0.00	30.292 
12:40	67.1	67.1	67.1	56	50.9	1	3	90	0.00	30.292 
12:45	67.1	67.1	67.1	58	51.8	1	4	90	0.00	30.289 
12:50	66.9	66.9	66.9	58	51.6	1	2	90	0.00	30.289 
12:55	67.3	67.3	67.3	60	52.9	0	1	90	0.00	30.289 
13:00	67.8	67.8	67.8	58	52.5	0	2	90	0.00	30.284 
13:05	68.1	68.1	68.1	56	51.8	0	2	90	0.00	30.284 
13:10	68.4	68.4	68.4	56	52.1	0	2	90	0.00	30.284 
13:15	68.8	68.8	68.8	55	52.0	0	2	90	0.00	30.284 
13:20	68.9	68.9	68.9	54	51.6	0	2	0	0.00	30.284 
13:25	69.1	69.1	69.1	52	50.7	0	1	0	0.00	30.284 
13:30	69.1	69.1	69.1	53	51.2	1	3	0	0.00	30.279 
13:35	69.3	69.3	69.3	49	49.3	1	3	315	0.00	30.279 
13:40	69.3	69.3	69.3	46	47.6	1	3	292	0.00	30.279 
13:45	69.6	69.6	69.6	49	49.6	0	1	292	0.00	30.277 
13:50	69.9	69.9	69.9	50	50.4	0	1	292	0.00	30.277 
13:55	69.9	69.9	69.9	43	46.4	1	3	292	0.00	30.277 
14:00	69.8	69.8	69.8	45	47.5	1	3	292	0.00	30.274 
14:05	69.6	69.6	69.6	44	46.7	0	2	292	0.00	30.274 
14:10	69.8	69.8	69.8	47	48.6	0	3	292	0.00	30.274 
14:15	70.1	70.1	70.1	44	47.2	1	3	292	0.00	30.270 
14:20	70.3	70.3	70.3	48	49.7	0	1	292	0.00	30.270 
14:25	70.3	70.3	70.3	46	48.5	1	4	135	0.00	30.270 
14:30	70.1	70.1	70.1	45	47.8	1	3	112	0.00	30.263 
14:35	70.3	70.3	70.3	44	47.3	0	1	112	0.00	30.263 
14:40	70.6	70.6	70.6	43	47.0	1	3	292	0.00	30.263 
14:45	70.9	70.9	70.9	43	47.3	1	3	292	0.00	30.260 
14:50	70.8	70.8	70.8	43	47.2	0	1	292	0.00	30.260 
14:55	70.9	70.9	70.9	45	48.5	0	2	292	0.00	30.260 
15:00	71.3	71.3	71.3	43	47.6	0	1	292	0.00	30.257 
15:05	71.5	71.5	71.5	41	46.5	0	1	292	0.00	30.257 
15:10	71.6	71.6	71.6	42	47.3	0	2	292	0.00	30.257 
15:15	71.5	71.5	71.5	35	42.4	1	3	90	0.00	30.256 
15:20	71.5	71.5	71.5	36	43.1	1	4	90	0.00	30.256 
15:25	71.5	71.5	71.5	39	45.2	0	2	90	0.00	30.256 
15:30	71.6	71.6	71.6	41	46.6	0	1	90	0.00	30.254 
15:35	71.8	71.8	71.8	38	44.8	0	1	90	0.00	30.254 
15:40	72.0	72.0	72.0	42	47.6	0	2	90	0.00	30.254 
15:45	72.0	72.0	72.0	37	44.3	0	1	90	0.00	30.248 
15:50	72.1	72.1	72.1	37	44.4	0	1	90	0.00	30.248 
15:55	72.1	72.1	72.1	37	44.4	0	1	90	0.00	30.248 
16:00	72.1	72.1	72.1	37	44.4	0	1	90	0.00	30.244 
16:05	72.3	72.3	72.3	37	44.6	0	1	90	0.00	30.244 
16:10	72.7	72.7	72.7	36	44.2	0	2	90	0.00	30.244 
16:15	72.7	72.7	72.7	35	43.5	0	2	90	0.00	30.243 
16:20	72.7	72.7	72.7	36	44.2	0	2	90	0.00	30.243 
16:25	72.3	72.3	72.3	35	43.1	0	1	90	0.00	30.243 
16:30	72.1	72.1	72.1	36	43.7	0	1	90	0.00	30.242 
16:35	72.0	72.0	72.0	36	43.6	0	1	90	0.00	30.242 
16:40	71.8	71.8	71.8	36	43.4	0	1	90	0.00	30.242 
16:45	71.8	71.8	71.8	38	44.8	0	2	90	0.00	30.238 
16:50	71.8	71.8	71.8	37	44.1	0	0	---	0.00	30.238 
16:55	71.8	71.8	71.8	35	42.7	0	1	90	0.00	30.238 
17:00	71.8	71.8	71.8	34	41.9	0	2	90	0.00	30.235 
17:05	71.8	71.8	71.8	38	44.8	0	1	90	0.00	30.235 
17:10	72.0	72.0	72.0	33	41.3	0	2	90	0.00	30.235 
17:15	72.0	72.0	72.0	35	42.8	0	0	---	0.00	30.233 
17:20	72.0	72.0	72.0	32	40.5	0	1	90	0.00	30.233 
17:25	71.8	71.8	71.8	32	40.3	0	0	---	0.00	30.233 
17:30	71.8	71.8	71.8	34	41.9	0	0	---	0.00	30.232 
17:35	71.6	71.6	71.6	34	41.7	0	0	---	0.00	30.232 
17:40	71.6	71.6	71.6	36	43.2	0	0	---	0.00	30.232 
17:45	71.5	71.5	71.5	36	43.1	0	1	90	0.00	30.231 
17:50	71.5	71.5	71.5	37	43.8	0	0	---	0.00	30.231 
17:55	71.3	71.3	71.3	36	43.0	0	0	---	0.00	30.231 
18:00	71.3	71.3	71.3	35	42.2	0	0	---	0.00	30.232 
18:05	71.1	71.1	71.1	35	42.0	0	0	---	0.00	30.232 
18:10	71.1	71.1	71.1	38	44.2	0	0	---	0.00	30.232 
18:15	70.9	70.9	70.9	38	44.0	0	0	---	0.00	30.231 
18:20	70.6	70.6	70.6	39	44.4	0	0	---	0.00	30.231 
18:25	70.4	70.4	70.4	43	46.8	0	0	---	0.00	30.231 
18:30	70.1	70.1	70.1	41	45.3	0	0	---	0.00	30.230 
18:35	69.6	69.6	69.6	43	46.1	0	0	---	0.00	30.230 
18:40	69.3	69.3	69.3	44	46.4	0	0	---	0.00	30.230 
18:45	68.9	68.9	68.9	46	47.3	0	0	---	0.00	30.232 
18:50	68.4	68.4	68.4	48	47.9	0	0	---	0.00	30.232 
18:55	67.9	67.9	67.9	48	47.5	0	0	---	0.00	30.232 
19:00	67.4	67.4	67.4	52	49.2	0	0	---	0.00	30.233 
19:05	66.8	66.8	66.8	52	48.6	0	0	---	0.00	30.233 
19:10	66.1	66.1	66.1	53	48.5	0	0	---	0.00	30.233 
19:15	65.6	65.6	65.6	55	49.0	0	0	---	0.00	30.235 
19:20	65.0	65.0	65.0	57	49.4	0	0	---	0.00	30.235 
19:25	64.3	64.3	64.3	58	49.2	0	0	---	0.00	30.235 
19:30	63.9	63.9	63.9	58	48.8	0	0	---	0.00	30.237 
19:35	63.2	63.2	63.2	60	49.1	0	0	---	0.00	30.237 
19:40	62.7	62.7	62.7	61	49.1	0	0	---	0.00	30.237 
19:45	62.1	62.1	62.1	62	48.9	0	0	---	0.00	30.240 
19:50	61.5	61.5	61.5	63	48.8	0	0	---	0.00	30.240 
19:55	61.0	61.0	61.0	64	48.7	0	0	---	0.00	30.240 
20:00	60.7	60.7	60.7	65	48.9	0	0	---	0.00	30.243 
20:05	60.2	60.2	60.2	67	49.2	0	0	---	0.00	30.243 
20:10	59.8	59.8	59.8	67	48.8	0	0	---	0.00	30.243 
20:15	59.3	59.3	59.3	68	48.7	0	0	---	0.00	30.244 
20:20	58.9	58.9	58.9	70	49.1	0	0	---	0.00	30.244 
20:25	58.6	58.6	58.6	71	49.2	0	0	---	0.00	30.244 
20:30	58.3	58.3	58.3	72	49.3	0	0	---	0.00	30.249 
20:35	57.8	57.8	57.8	73	49.2	0	0	---	0.00	30.249 
20:40	57.5	57.5	57.5	74	49.3	0	0	---	0.00	30.249 
20:45	57.2	57.2	57.2	75	49.3	0	0	---	0.00	30.251 
20:50	56.9	56.9	56.9	76	49.4	0	0	---	0.00	30.251 
20:55	56.6	56.6	56.6	77	49.5	0	0	---	0.00	30.251 
21:00	56.3	56.3	56.3	78	49.5	0	0	---	0.00	30.254 
21:05	56.0	56.0	56.0	79	49.6	0	0	---	0.00	30.254 
21:10	55.7	55.7	55.7	79	49.3	0	0	---	0.00	30.254 
21:15	55.4	55.4	55.4	80	49.3	0	0	---	0.00	30.245 
21:20	55.1	55.1	55.1	81	49.4	0	0	---	0.00	30.245 
21:25	55.0	55.0	55.0	81	49.3	0	0	---	0.00	30.245 
21:30	54.7	54.7	54.7	82	49.3	0	0	---	0.00	30.248 
21:35	54.5	54.5	54.5	82	49.1	0	0	---	0.00	30.248 
21:40	54.4	54.4	54.4	83	49.3	0	0	---	0.00	30.248 
21:45	54.2	54.2	54.2	83	49.1	0	0	---	0.00	30.250 
21:50	53.9	53.9	53.9	83	48.9	0	0	---	0.00	30.250 
21:55	53.8	53.8	53.8	83	48.8	0	0	---	0.00	30.250 
22:00	53.6	53.6	53.6	83	48.6	0	0	---	0.00	30.251 
22:05	53.5	53.5	53.5	83	48.5	0	0	---	0.00	30.251 
22:10	53.3	53.3	53.3	83	48.3	0	0	---	0.00	30.251 
22:15	53.2	53.2	53.2	83	48.2	0	0	---	0.00	30.244 
22:20	53.1	53.1	53.1	83	48.1	0	0	---	0.00	30.244 
22:25	52.9	52.9	52.9	84	48.2	0	0	---	0.00	30.244 
22:30	52.8	52.8	52.8	84	48.1	0	0	---	0.00	30.244 
22:35	52.6	52.6	52.6	84	47.9	0	0	---	0.00	30.244 
22:40	52.5	52.5	52.5	84	47.8	0	0	---	0.00	30.244 
22:45	52.3	52.3	52.3	84	47.6	0	0	---	0.00	30.244 
22:50	52.0	52.0	52.0	85	47.6	0	0	---	0.00	30.244 
22:55	51.9	51.9	51.9	85	47.5	0	0	---	0.00	30.244 
23:00	51.7	51.7	51.7	86	47.6	0	0	---	0.00	30.245 
23:05	51.6	51.6	51.6	86	47.5	0	0	---	0.00	30.245 
23:10	51.4	51.4	51.4	86	47.4	0	0	---	0.00	30.245 
23:15	51.3	51.3	51.3	87	47.6	0	0	---	0.00	30.245 
23:20	51.3	51.3	51.3	87	47.6	0	0	---	0.00	30.245 
23:25	51.1	51.1	51.1	87	47.4	0	0	---	0.00	30.245 
23:30	51.1	51.1	51.1	88	47.7	0	0	---	0.00	30.246 
23:35	51.0	51.0	51.0	88	47.6	0	0	---	0.00	30.246 
23:40	50.8	50.8	50.8	88	47.4	0	0	---	0.00	30.246 
23:45	50.8	50.8	50.8	88	47.4	0	0	---	0.00	30.245 
23:50	50.7	50.7	50.7	88	47.3	0	0	---	0.00	30.245 
23:55	50.5	50.5	50.5	88	47.1	0	0	---	0.00	30.245 

CoCoRaHS
IN-AL-39
A2 Web Hosting
Creative Commons License
GoDaddy
search engine by freefind advanced

loaded 2018-11-14 03:34:57 • last modified 2010-11-18 10:43:29
Privacy PolicyDisclaimer
• wx.awcolley.com is powered by PmWiki v.2002016 •
• all content (unless otherwise noted) © 2018 A W Colley